sensor_id;sensor_type;location;lat;lon;timestamp;P1;durP1;ratioP1;P2;durP2;ratioP2
76196;SDS011;64974;53.144;17.962;2024-01-06T01:07:05;11.38;;;5.05;;
76196;SDS011;64974;53.144;17.962;2024-01-06T01:54:33;9.27;;;4.10;;
76196;SDS011;64974;53.144;17.962;2024-01-06T05:04:03;10.23;;;4.53;;
76196;SDS011;64974;53.144;17.962;2024-01-06T06:33:40;6.90;;;2.13;;
76196;SDS011;64974;53.144;17.962;2024-01-06T07:13:42;4.57;;;2.35;;
76196;SDS011;64974;53.144;17.962;2024-01-06T10:28:24;8.32;;;3.35;;
76196;SDS011;64974;53.144;17.962;2024-01-06T10:31:08;7.03;;;3.05;;
76196;SDS011;64974;53.144;17.962;2024-01-06T10:33:47;10.32;;;3.63;;
76196;SDS011;64974;53.144;17.962;2024-01-06T10:39:49;10.30;;;3.45;;
76196;SDS011;64974;53.144;17.962;2024-01-06T11:24:29;7.43;;;3.08;;
76196;SDS011;64974;53.144;17.962;2024-01-06T11:27:29;7.55;;;3.45;;
76196;SDS011;64974;53.144;17.962;2024-01-06T11:33:48;8.93;;;3.35;;
76196;SDS011;64974;53.144;17.962;2024-01-06T11:37:34;8.35;;;3.30;;
76196;SDS011;64974;53.144;17.962;2024-01-06T11:43:21;9.52;;;3.28;;
76196;SDS011;64974;53.144;17.962;2024-01-06T11:49:31;7.70;;;3.13;;
76196;SDS011;64974;53.144;17.962;2024-01-06T11:52:04;8.88;;;3.78;;
76196;SDS011;64974;53.144;17.962;2024-01-06T11:54:38;8.18;;;3.22;;
76196;SDS011;64974;53.144;17.962;2024-01-06T12:07:16;5.75;;;2.50;;
76196;SDS011;64974;53.144;17.962;2024-01-06T12:10:05;6.18;;;3.10;;
76196;SDS011;64974;53.144;17.962;2024-01-06T12:12:59;6.13;;;3.03;;
76196;SDS011;64974;53.144;17.962;2024-01-06T12:15:26;8.95;;;3.15;;
76196;SDS011;64974;53.144;17.962;2024-01-06T12:18:07;8.38;;;3.47;;
76196;SDS011;64974;53.144;17.962;2024-01-06T12:23:24;7.15;;;3.45;;
76196;SDS011;64974;53.144;17.962;2024-01-06T12:26:02;6.40;;;2.78;;
76196;SDS011;64974;53.144;17.962;2024-01-06T12:28:44;8.20;;;3.15;;
76196;SDS011;64974;53.144;17.962;2024-01-06T12:31:16;7.28;;;3.10;;
76196;SDS011;64974;53.144;17.962;2024-01-06T12:36:10;6.93;;;2.47;;
76196;SDS011;64974;53.144;17.962;2024-01-06T12:41:07;6.47;;;2.88;;
76196;SDS011;64974;53.144;17.962;2024-01-06T12:43:40;9.85;;;3.78;;
76196;SDS011;64974;53.144;17.962;2024-01-06T12:46:06;7.93;;;3.58;;
76196;SDS011;64974;53.144;17.962;2024-01-06T12:48:33;8.05;;;3.00;;
76196;SDS011;64974;53.144;17.962;2024-01-06T12:51:00;5.63;;;2.88;;
76196;SDS011;64974;53.144;17.962;2024-01-06T12:55:54;7.07;;;2.45;;
76196;SDS011;64974;53.144;17.962;2024-01-06T12:58:20;7.40;;;2.85;;
76196;SDS011;64974;53.144;17.962;2024-01-06T13:00:48;8.75;;;2.85;;
76196;SDS011;64974;53.144;17.962;2024-01-06T13:03:15;4.45;;;2.25;;
76196;SDS011;64974;53.144;17.962;2024-01-06T13:05:42;6.25;;;2.67;;
76196;SDS011;64974;53.144;17.962;2024-01-06T13:08:17;8.48;;;2.78;;
76196;SDS011;64974;53.144;17.962;2024-01-06T13:10:43;6.70;;;2.72;;
76196;SDS011;64974;53.144;17.962;2024-01-06T13:13:18;4.63;;;2.88;;
76196;SDS011;64974;53.144;17.962;2024-01-06T13:15:44;6.00;;;2.75;;
76196;SDS011;64974;53.144;17.962;2024-01-06T13:18:11;5.80;;;2.65;;
76196;SDS011;64974;53.144;17.962;2024-01-06T13:23:11;4.72;;;2.30;;
76196;SDS011;64974;53.144;17.962;2024-01-06T13:25:38;5.75;;;2.53;;
76196;SDS011;64974;53.144;17.962;2024-01-06T13:28:06;5.10;;;2.38;;
76196;SDS011;64974;53.144;17.962;2024-01-06T13:30:34;4.68;;;2.55;;
76196;SDS011;64974;53.144;17.962;2024-01-06T13:33:01;6.22;;;2.50;;
76196;SDS011;64974;53.144;17.962;2024-01-06T13:35:34;8.05;;;3.15;;
76196;SDS011;64974;53.144;17.962;2024-01-06T13:38:03;5.20;;;2.92;;
76196;SDS011;64974;53.144;17.962;2024-01-06T13:40:34;7.28;;;3.03;;
76196;SDS011;64974;53.144;17.962;2024-01-06T13:43:08;6.07;;;3.08;;
76196;SDS011;64974;53.144;17.962;2024-01-06T13:45:42;6.05;;;2.63;;
76196;SDS011;64974;53.144;17.962;2024-01-06T13:48:09;7.25;;;3.10;;
76196;SDS011;64974;53.144;17.962;2024-01-06T13:53:11;7.80;;;2.90;;
76196;SDS011;64974;53.144;17.962;2024-01-06T13:55:38;7.50;;;3.00;;
76196;SDS011;64974;53.144;17.962;2024-01-06T13:58:08;5.70;;;2.90;;
76196;SDS011;64974;53.144;17.962;2024-01-06T14:00:34;6.65;;;2.55;;
76196;SDS011;64974;53.144;17.962;2024-01-06T14:05:29;5.03;;;2.58;;
76196;SDS011;64974;53.144;17.962;2024-01-06T14:07:57;6.95;;;2.50;;
76196;SDS011;64974;53.144;17.962;2024-01-06T14:10:23;4.70;;;2.42;;
76196;SDS011;64974;53.144;17.962;2024-01-06T14:12:51;6.20;;;2.58;;
76196;SDS011;64974;53.144;17.962;2024-01-06T14:15:28;7.60;;;2.45;;
76196;SDS011;64974;53.144;17.962;2024-01-06T14:17:58;6.70;;;2.60;;
76196;SDS011;64974;53.144;17.962;2024-01-06T14:20:26;6.63;;;2.50;;
76196;SDS011;64974;53.144;17.962;2024-01-06T14:23:07;5.35;;;2.50;;
76196;SDS011;64974;53.144;17.962;2024-01-06T14:25:40;6.93;;;3.03;;
76196;SDS011;64974;53.144;17.962;2024-01-06T14:28:06;12.45;;;4.07;;
76196;SDS011;64974;53.144;17.962;2024-01-06T14:30:33;8.38;;;3.20;;
76196;SDS011;64974;53.144;17.962;2024-01-06T14:33:00;5.68;;;2.70;;
76196;SDS011;64974;53.144;17.962;2024-01-06T14:35:28;7.05;;;3.08;;
76196;SDS011;64974;53.144;17.962;2024-01-06T14:37:54;6.93;;;3.15;;
76196;SDS011;64974;53.144;17.962;2024-01-06T14:40:22;6.47;;;2.53;;
76196;SDS011;64974;53.144;17.962;2024-01-06T14:42:49;9.13;;;2.95;;
76196;SDS011;64974;53.144;17.962;2024-01-06T14:45:27;4.53;;;2.22;;
76196;SDS011;64974;53.144;17.962;2024-01-06T14:47:58;6.05;;;2.47;;
76196;SDS011;64974;53.144;17.962;2024-01-06T14:50:25;7.00;;;2.13;;
76196;SDS011;64974;53.144;17.962;2024-01-06T14:55:28;8.60;;;3.55;;
76196;SDS011;64974;53.144;17.962;2024-01-06T14:57:54;9.43;;;3.17;;
76196;SDS011;64974;53.144;17.962;2024-01-06T15:00:24;6.18;;;2.33;;
76196;SDS011;64974;53.144;17.962;2024-01-06T15:02:54;6.45;;;2.20;;
76196;SDS011;64974;53.144;17.962;2024-01-06T15:05:35;5.22;;;2.30;;
76196;SDS011;64974;53.144;17.962;2024-01-06T15:08:03;8.38;;;2.40;;
76196;SDS011;64974;53.144;17.962;2024-01-06T15:10:30;7.30;;;2.60;;
76196;SDS011;64974;53.144;17.962;2024-01-06T15:12:59;6.05;;;2.42;;
76196;SDS011;64974;53.144;17.962;2024-01-06T15:17:52;6.20;;;2.10;;
76196;SDS011;64974;53.144;17.962;2024-01-06T15:20:21;8.00;;;2.25;;
76196;SDS011;64974;53.144;17.962;2024-01-06T15:22:48;5.88;;;2.47;;
76196;SDS011;64974;53.144;17.962;2024-01-06T15:25:19;5.45;;;2.33;;
76196;SDS011;64974;53.144;17.962;2024-01-06T15:27:46;4.43;;;2.10;;
76196;SDS011;64974;53.144;17.962;2024-01-06T15:30:18;6.13;;;2.08;;
76196;SDS011;64974;53.144;17.962;2024-01-06T15:33:12;5.38;;;2.33;;
76196;SDS011;64974;53.144;17.962;2024-01-06T15:35:45;8.35;;;2.53;;
76196;SDS011;64974;53.144;17.962;2024-01-06T15:38:14;8.57;;;2.30;;
76196;SDS011;64974;53.144;17.962;2024-01-06T15:40:48;6.07;;;2.00;;
76196;SDS011;64974;53.144;17.962;2024-01-06T15:43:15;8.55;;;2.20;;
76196;SDS011;64974;53.144;17.962;2024-01-06T15:45:44;6.82;;;2.40;;
76196;SDS011;64974;53.144;17.962;2024-01-06T15:48:11;11.48;;;2.83;;
76196;SDS011;64974;53.144;17.962;2024-01-06T15:50:37;4.93;;;1.77;;
76196;SDS011;64974;53.144;17.962;2024-01-06T15:53:25;4.78;;;1.80;;
76196;SDS011;64974;53.144;17.962;2024-01-06T15:55:56;4.68;;;2.45;;
76196;SDS011;64974;53.144;17.962;2024-01-06T15:58:23;4.80;;;2.40;;
76196;SDS011;64974;53.144;17.962;2024-01-06T16:00:52;4.55;;;1.80;;
76196;SDS011;64974;53.144;17.962;2024-01-06T16:03:21;10.45;;;2.30;;
76196;SDS011;64974;53.144;17.962;2024-01-06T16:05:48;5.68;;;1.85;;
76196;SDS011;64974;53.144;17.962;2024-01-06T16:08:21;6.28;;;2.40;;
76196;SDS011;64974;53.144;17.962;2024-01-06T16:11:07;7.45;;;2.20;;
76196;SDS011;64974;53.144;17.962;2024-01-06T16:13:42;6.85;;;2.03;;
76196;SDS011;64974;53.144;17.962;2024-01-06T16:16:14;6.30;;;2.58;;
76196;SDS011;64974;53.144;17.962;2024-01-06T16:18:41;4.28;;;1.88;;
76196;SDS011;64974;53.144;17.962;2024-01-06T16:21:09;7.18;;;2.30;;
76196;SDS011;64974;53.144;17.962;2024-01-06T16:23:35;6.88;;;2.20;;
76196;SDS011;64974;53.144;17.962;2024-01-06T16:26:02;6.72;;;2.58;;
76196;SDS011;64974;53.144;17.962;2024-01-06T16:30:56;4.10;;;1.98;;
76196;SDS011;64974;53.144;17.962;2024-01-06T16:33:23;5.22;;;1.77;;
76196;SDS011;64974;53.144;17.962;2024-01-06T16:35:58;5.65;;;2.42;;
76196;SDS011;64974;53.144;17.962;2024-01-06T16:38:27;4.75;;;2.25;;
76196;SDS011;64974;53.144;17.962;2024-01-06T16:41:03;7.25;;;1.77;;
76196;SDS011;64974;53.144;17.962;2024-01-06T16:43:31;5.93;;;2.08;;
76196;SDS011;64974;53.144;17.962;2024-01-06T16:46:12;4.45;;;1.80;;
76196;SDS011;64974;53.144;17.962;2024-01-06T16:48:39;5.65;;;2.03;;
76196;SDS011;64974;53.144;17.962;2024-01-06T16:51:05;8.88;;;2.67;;
76196;SDS011;64974;53.144;17.962;2024-01-06T16:53:34;5.72;;;2.08;;
76196;SDS011;64974;53.144;17.962;2024-01-06T16:56:00;4.50;;;2.10;;
76196;SDS011;64974;53.144;17.962;2024-01-06T16:58:27;6.07;;;2.40;;
76196;SDS011;64974;53.144;17.962;2024-01-06T17:00:55;5.75;;;2.35;;
76196;SDS011;64974;53.144;17.962;2024-01-06T17:03:21;4.13;;;1.88;;
76196;SDS011;64974;53.144;17.962;2024-01-06T17:05:48;3.53;;;1.63;;
76196;SDS011;64974;53.144;17.962;2024-01-06T17:14:25;4.82;;;1.90;;
76196;SDS011;64974;53.144;17.962;2024-01-06T17:17:03;4.03;;;1.80;;
76196;SDS011;64974;53.144;17.962;2024-01-06T17:19:33;6.78;;;2.35;;
76196;SDS011;64974;53.144;17.962;2024-01-06T17:22:03;4.78;;;1.83;;
76196;SDS011;64974;53.144;17.962;2024-01-06T17:24:50;13.30;;;4.10;;
76196;SDS011;64974;53.144;17.962;2024-01-06T17:27:16;6.03;;;2.25;;
76196;SDS011;64974;53.144;17.962;2024-01-06T17:29:45;7.65;;;2.85;;
76196;SDS011;64974;53.144;17.962;2024-01-06T17:32:19;5.93;;;2.08;;
76196;SDS011;64974;53.144;17.962;2024-01-06T17:34:58;12.00;;;4.18;;
76196;SDS011;64974;53.144;17.962;2024-01-06T17:37:37;6.47;;;2.55;;
76196;SDS011;64974;53.144;17.962;2024-01-06T17:45:55;3.88;;;1.65;;
76196;SDS011;64974;53.144;17.962;2024-01-06T17:48:36;13.75;;;4.68;;
76196;SDS011;64974;53.144;17.962;2024-01-06T17:54:41;4.50;;;2.13;;
76196;SDS011;64974;53.144;17.962;2024-01-06T17:57:08;4.00;;;1.85;;
76196;SDS011;64974;53.144;17.962;2024-01-06T17:59:45;6.00;;;2.25;;
76196;SDS011;64974;53.144;17.962;2024-01-06T18:02:23;6.32;;;2.60;;
76196;SDS011;64974;53.144;17.962;2024-01-06T18:05:28;6.03;;;2.20;;
76196;SDS011;64974;53.144;17.962;2024-01-06T18:08:15;5.40;;;1.90;;
76196;SDS011;64974;53.144;17.962;2024-01-06T18:10:41;4.95;;;1.92;;
76196;SDS011;64974;53.144;17.962;2024-01-06T18:13:25;8.55;;;2.63;;
76196;SDS011;64974;53.144;17.962;2024-01-06T18:15:52;6.30;;;2.22;;
76196;SDS011;64974;53.144;17.962;2024-01-06T18:18:19;7.45;;;2.60;;
76196;SDS011;64974;53.144;17.962;2024-01-06T18:20:59;9.88;;;2.60;;
76196;SDS011;64974;53.144;17.962;2024-01-06T18:23:45;9.32;;;3.13;;
76196;SDS011;64974;53.144;17.962;2024-01-06T18:26:31;4.45;;;1.90;;
76196;SDS011;64974;53.144;17.962;2024-01-06T18:29:05;5.03;;;1.80;;
76196;SDS011;64974;53.144;17.962;2024-01-06T18:31:37;5.78;;;1.83;;
76196;SDS011;64974;53.144;17.962;2024-01-06T18:39:48;6.72;;;2.35;;
76196;SDS011;64974;53.144;17.962;2024-01-06T18:42:14;5.55;;;1.92;;
76196;SDS011;64974;53.144;17.962;2024-01-06T18:44:45;5.78;;;1.85;;
76196;SDS011;64974;53.144;17.962;2024-01-06T18:47:12;4.07;;;1.60;;
76196;SDS011;64974;53.144;17.962;2024-01-06T18:50:18;4.53;;;1.90;;
76196;SDS011;64974;53.144;17.962;2024-01-06T18:55:46;3.75;;;1.75;;
76196;SDS011;64974;53.144;17.962;2024-01-06T18:58:38;3.40;;;1.63;;
76196;SDS011;64974;53.144;17.962;2024-01-06T19:01:32;4.60;;;1.73;;
76196;SDS011;64974;53.144;17.962;2024-01-06T19:04:02;4.50;;;1.40;;
76196;SDS011;64974;53.144;17.962;2024-01-06T19:06:49;5.28;;;2.20;;
76196;SDS011;64974;53.144;17.962;2024-01-06T19:21:56;10.07;;;2.70;;
76196;SDS011;64974;53.144;17.962;2024-01-06T19:24:26;3.72;;;2.03;;
76196;SDS011;64974;53.144;17.962;2024-01-06T19:26:58;4.40;;;2.20;;
76196;SDS011;64974;53.144;17.962;2024-01-06T19:29:32;4.68;;;2.25;;
76196;SDS011;64974;53.144;17.962;2024-01-06T19:32:07;6.50;;;3.00;;
76196;SDS011;64974;53.144;17.962;2024-01-06T19:43:09;8.07;;;2.88;;
76196;SDS011;64974;53.144;17.962;2024-01-06T19:45:42;7.85;;;2.47;;
76196;SDS011;64974;53.144;17.962;2024-01-06T19:48:08;12.07;;;4.03;;
76196;SDS011;64974;53.144;17.962;2024-01-06T19:50:45;37.40;;;11.88;;
76196;SDS011;64974;53.144;17.962;2024-01-06T19:53:18;19.95;;;6.35;;
76196;SDS011;64974;53.144;17.962;2024-01-06T19:55:46;16.75;;;5.43;;
76196;SDS011;64974;53.144;17.962;2024-01-06T20:01:16;93.03;;;22.20;;
76196;SDS011;64974;53.144;17.962;2024-01-06T20:03:49;72.07;;;18.83;;
76196;SDS011;64974;53.144;17.962;2024-01-06T20:06:20;89.50;;;22.67;;
76196;SDS011;64974;53.144;17.962;2024-01-06T20:09:00;60.42;;;16.65;;
76196;SDS011;64974;53.144;17.962;2024-01-06T20:11:41;67.78;;;19.15;;
76196;SDS011;64974;53.144;17.962;2024-01-06T20:14:12;120.50;;;31.13;;
76196;SDS011;64974;53.144;17.962;2024-01-06T20:16:44;59.97;;;19.27;;
76196;SDS011;64974;53.144;17.962;2024-01-06T20:19:13;61.22;;;17.50;;
76196;SDS011;64974;53.144;17.962;2024-01-06T20:21:42;56.15;;;18.80;;
76196;SDS011;64974;53.144;17.962;2024-01-06T20:24:17;33.15;;;11.93;;
76196;SDS011;64974;53.144;17.962;2024-01-06T20:27:02;21.52;;;8.25;;
76196;SDS011;64974;53.144;17.962;2024-01-06T20:29:54;8.70;;;3.58;;
76196;SDS011;64974;53.144;17.962;2024-01-06T20:32:37;12.90;;;4.82;;
76196;SDS011;64974;53.144;17.962;2024-01-06T20:35:04;10.73;;;4.03;;
76196;SDS011;64974;53.144;17.962;2024-01-06T20:37:45;8.95;;;4.38;;
76196;SDS011;64974;53.144;17.962;2024-01-06T20:40:22;7.53;;;3.30;;
76196;SDS011;64974;53.144;17.962;2024-01-06T20:43:09;10.30;;;3.03;;
76196;SDS011;64974;53.144;17.962;2024-01-06T20:45:38;6.88;;;3.58;;
76196;SDS011;64974;53.144;17.962;2024-01-06T20:48:06;8.48;;;3.47;;
76196;SDS011;64974;53.144;17.962;2024-01-06T20:50:39;7.72;;;3.38;;
76196;SDS011;64974;53.144;17.962;2024-01-06T20:53:11;9.30;;;3.40;;
76196;SDS011;64974;53.144;17.962;2024-01-06T20:55:55;20.48;;;5.85;;
76196;SDS011;64974;53.144;17.962;2024-01-06T20:58:29;14.18;;;3.90;;
76196;SDS011;64974;53.144;17.962;2024-01-06T21:01:04;11.07;;;3.75;;
76196;SDS011;64974;53.144;17.962;2024-01-06T21:03:37;5.78;;;2.88;;
76196;SDS011;64974;53.144;17.962;2024-01-06T21:09:22;3.25;;;1.40;;
76196;SDS011;64974;53.144;17.962;2024-01-06T21:11:59;4.28;;;1.63;;
76196;SDS011;64974;53.144;17.962;2024-01-06T21:14:32;6.15;;;1.90;;
76196;SDS011;64974;53.144;17.962;2024-01-06T21:24:21;3.97;;;1.83;;
76196;SDS011;64974;53.144;17.962;2024-01-06T21:27:02;3.42;;;1.63;;
76196;SDS011;64974;53.144;17.962;2024-01-06T21:40:11;4.10;;;1.30;;
76196;SDS011;64974;53.144;17.962;2024-01-06T21:42:43;2.92;;;1.40;;
76196;SDS011;64974;53.144;17.962;2024-01-06T21:45:26;7.25;;;1.92;;
76196;SDS011;64974;53.144;17.962;2024-01-06T21:48:16;7.80;;;2.72;;
76196;SDS011;64974;53.144;17.962;2024-01-06T21:50:43;8.75;;;2.30;;
76196;SDS011;64974;53.144;17.962;2024-01-06T21:53:13;8.05;;;2.00;;
76196;SDS011;64974;53.144;17.962;2024-01-06T21:56:02;7.50;;;1.95;;
76196;SDS011;64974;53.144;17.962;2024-01-06T21:58:41;6.20;;;1.92;;
76196;SDS011;64974;53.144;17.962;2024-01-06T22:01:10;3.00;;;1.42;;
76196;SDS011;64974;53.144;17.962;2024-01-06T22:04:03;4.35;;;1.27;;
76196;SDS011;64974;53.144;17.962;2024-01-06T22:06:43;2.95;;;1.00;;
76196;SDS011;64974;53.144;17.962;2024-01-06T22:12:11;2.90;;;1.13;;
76196;SDS011;64974;53.144;17.962;2024-01-06T22:14:40;4.72;;;1.40;;
76196;SDS011;64974;53.144;17.962;2024-01-06T22:19:47;3.47;;;1.40;;
76196;SDS011;64974;53.144;17.962;2024-01-06T22:22:43;3.35;;;1.48;;
76196;SDS011;64974;53.144;17.962;2024-01-06T22:25:11;3.35;;;1.30;;
76196;SDS011;64974;53.144;17.962;2024-01-06T22:30:16;4.53;;;1.67;;
76196;SDS011;64974;53.144;17.962;2024-01-06T22:32:55;3.33;;;1.13;;
76196;SDS011;64974;53.144;17.962;2024-01-06T22:35:34;6.80;;;1.77;;
76196;SDS011;64974;53.144;17.962;2024-01-06T22:38:18;4.78;;;2.03;;
76196;SDS011;64974;53.144;17.962;2024-01-06T22:41:08;3.38;;;1.50;;
76196;SDS011;64974;53.144;17.962;2024-01-06T22:43:48;4.15;;;1.67;;
76196;SDS011;64974;53.144;17.962;2024-01-06T22:46:38;3.15;;;1.20;;
76196;SDS011;64974;53.144;17.962;2024-01-06T22:50:11;4.88;;;1.90;;
76196;SDS011;64974;53.144;17.962;2024-01-06T22:57:07;6.25;;;1.90;;
76196;SDS011;64974;53.144;17.962;2024-01-06T22:59:37;3.67;;;1.63;;
76196;SDS011;64974;53.144;17.962;2024-01-06T23:02:14;6.25;;;2.17;;
76196;SDS011;64974;53.144;17.962;2024-01-06T23:04:47;5.15;;;1.45;;
76196;SDS011;64974;53.144;17.962;2024-01-06T23:07:20;4.85;;;1.88;;
76196;SDS011;64974;53.144;17.962;2024-01-06T23:10:09;4.30;;;1.45;;
76196;SDS011;64974;53.144;17.962;2024-01-06T23:19:09;3.88;;;1.42;;
76196;SDS011;64974;53.144;17.962;2024-01-06T23:22:04;3.60;;;1.55;;
76196;SDS011;64974;53.144;17.962;2024-01-06T23:27:47;3.50;;;1.42;;
76196;SDS011;64974;53.144;17.962;2024-01-06T23:30:34;3.80;;;1.65;;
76196;SDS011;64974;53.144;17.962;2024-01-06T23:33:04;2.55;;;1.38;;
